sensor_id;sensor_type;location;lat;lon;timestamp;P1;durP1;ratioP1;P2;durP2;ratioP2
76865;SDS011;66647;52.124;5.416;2024-01-10T00:08:16;2.13;;;0.77;;
76865;SDS011;66647;52.124;5.416;2024-01-10T00:14:08;3.50;;;0.75;;
76865;SDS011;66647;52.124;5.416;2024-01-10T00:16:45;3.55;;;0.28;;
76865;SDS011;66647;52.124;5.416;2024-01-10T00:19:12;1.40;;;0.43;;
76865;SDS011;66647;52.124;5.416;2024-01-10T00:21:39;1.67;;;0.20;;
76865;SDS011;66647;52.124;5.416;2024-01-10T00:24:11;1.17;;;0.15;;
76865;SDS011;66647;52.124;5.416;2024-01-10T00:29:46;1.35;;;0.20;;
76865;SDS011;66647;52.124;5.416;2024-01-10T00:32:13;1.83;;;0.68;;
76865;SDS011;66647;52.124;5.416;2024-01-10T00:35:00;1.95;;;0.73;;
76865;SDS011;66647;52.124;5.416;2024-01-10T00:37:32;2.05;;;0.30;;
76865;SDS011;66647;52.124;5.416;2024-01-10T00:46:40;2.03;;;1.30;;
76865;SDS011;66647;52.124;5.416;2024-01-10T00:49:07;3.20;;;0.47;;
76865;SDS011;66647;52.124;5.416;2024-01-10T00:52:08;1.98;;;0.43;;
76865;SDS011;66647;52.124;5.416;2024-01-10T00:54:35;1.45;;;0.28;;
76865;SDS011;66647;52.124;5.416;2024-01-10T01:00:44;0.80;;;0.13;;
76865;SDS011;66647;52.124;5.416;2024-01-10T01:03:11;2.28;;;0.82;;
76865;SDS011;66647;52.124;5.416;2024-01-10T01:05:38;1.85;;;0.95;;
76865;SDS011;66647;52.124;5.416;2024-01-10T01:14:51;2.13;;;0.88;;
76865;SDS011;66647;52.124;5.416;2024-01-10T01:17:57;1.48;;;0.60;;
76865;SDS011;66647;52.124;5.416;2024-01-10T01:20:23;1.60;;;0.30;;
76865;SDS011;66647;52.124;5.416;2024-01-10T01:22:57;3.75;;;1.10;;
76865;SDS011;66647;52.124;5.416;2024-01-10T01:25:24;3.13;;;0.90;;
76865;SDS011;66647;52.124;5.416;2024-01-10T01:27:51;1.75;;;0.17;;
76865;SDS011;66647;52.124;5.416;2024-01-10T01:33:09;1.45;;;0.20;;
76865;SDS011;66647;52.124;5.416;2024-01-10T01:43:25;3.22;;;0.57;;
76865;SDS011;66647;52.124;5.416;2024-01-10T01:45:58;2.33;;;0.35;;
76865;SDS011;66647;52.124;5.416;2024-01-10T01:54:12;1.85;;;0.30;;
76865;SDS011;66647;52.124;5.416;2024-01-10T01:56:43;1.60;;;0.20;;
76865;SDS011;66647;52.124;5.416;2024-01-10T01:59:13;2.15;;;1.05;;
76865;SDS011;66647;52.124;5.416;2024-01-10T02:04:37;1.55;;;0.22;;
76865;SDS011;66647;52.124;5.416;2024-01-10T02:09:58;1.42;;;0.40;;
76865;SDS011;66647;52.124;5.416;2024-01-10T02:21:01;1.58;;;0.25;;
76865;SDS011;66647;52.124;5.416;2024-01-10T02:23:28;2.85;;;0.40;;
76865;SDS011;66647;52.124;5.416;2024-01-10T02:25:55;3.08;;;1.23;;
76865;SDS011;66647;52.124;5.416;2024-01-10T02:28:21;1.55;;;0.60;;
76865;SDS011;66647;52.124;5.416;2024-01-10T02:30:50;2.83;;;1.65;;
76865;SDS011;66647;52.124;5.416;2024-01-10T02:33:19;3.08;;;0.30;;
76865;SDS011;66647;52.124;5.416;2024-01-10T02:35:46;2.63;;;0.88;;
76865;SDS011;66647;52.124;5.416;2024-01-10T02:38:14;2.53;;;0.82;;
76865;SDS011;66647;52.124;5.416;2024-01-10T02:44:27;1.90;;;0.77;;
76865;SDS011;66647;52.124;5.416;2024-01-10T02:46:54;3.88;;;2.40;;
76865;SDS011;66647;52.124;5.416;2024-01-10T02:49:21;1.40;;;0.77;;
76865;SDS011;66647;52.124;5.416;2024-01-10T02:52:09;3.35;;;0.22;;
76865;SDS011;66647;52.124;5.416;2024-01-10T02:54:43;1.98;;;0.20;;
76865;SDS011;66647;52.124;5.416;2024-01-10T03:02:25;1.98;;;0.70;;
76865;SDS011;66647;52.124;5.416;2024-01-10T03:08:01;2.95;;;2.10;;
76865;SDS011;66647;52.124;5.416;2024-01-10T03:10:49;3.00;;;1.15;;
76865;SDS011;66647;52.124;5.416;2024-01-10T03:16:09;1.63;;;0.50;;
76865;SDS011;66647;52.124;5.416;2024-01-10T03:18:36;2.67;;;0.75;;
76865;SDS011;66647;52.124;5.416;2024-01-10T03:21:03;3.28;;;0.95;;
76865;SDS011;66647;52.124;5.416;2024-01-10T03:23:30;3.25;;;1.00;;
76865;SDS011;66647;52.124;5.416;2024-01-10T03:26:22;2.40;;;0.60;;
76865;SDS011;66647;52.124;5.416;2024-01-10T03:31:42;1.55;;;0.25;;
76865;SDS011;66647;52.124;5.416;2024-01-10T03:34:08;4.45;;;1.02;;
76865;SDS011;66647;52.124;5.416;2024-01-10T03:36:56;2.05;;;1.40;;
76865;SDS011;66647;52.124;5.416;2024-01-10T03:39:23;2.10;;;0.45;;
76865;SDS011;66647;52.124;5.416;2024-01-10T03:45:43;1.27;;;0.40;;
76865;SDS011;66647;52.124;5.416;2024-01-10T03:49:45;1.83;;;0.65;;
76865;SDS011;66647;52.124;5.416;2024-01-10T03:52:12;0.95;;;0.30;;
76865;SDS011;66647;52.124;5.416;2024-01-10T03:54:51;3.40;;;0.65;;
76865;SDS011;66647;52.124;5.416;2024-01-10T03:57:31;2.78;;;1.17;;
76865;SDS011;66647;52.124;5.416;2024-01-10T03:59:58;6.70;;;1.17;;
76865;SDS011;66647;52.124;5.416;2024-01-10T04:02:25;5.72;;;1.60;;
76865;SDS011;66647;52.124;5.416;2024-01-10T04:05:17;1.40;;;0.52;;
76865;SDS011;66647;52.124;5.416;2024-01-10T04:10:43;2.25;;;0.50;;
76865;SDS011;66647;52.124;5.416;2024-01-10T04:14:18;2.58;;;0.75;;
76865;SDS011;66647;52.124;5.416;2024-01-10T04:17:01;2.63;;;1.73;;
76865;SDS011;66647;52.124;5.416;2024-01-10T04:19:48;1.67;;;0.77;;
76865;SDS011;66647;52.124;5.416;2024-01-10T04:24:51;2.63;;;1.60;;
76865;SDS011;66647;52.124;5.416;2024-01-10T04:31:39;3.33;;;0.90;;
76865;SDS011;66647;52.124;5.416;2024-01-10T04:34:08;1.30;;;0.40;;
76865;SDS011;66647;52.124;5.416;2024-01-10T04:36:35;1.65;;;0.25;;
76865;SDS011;66647;52.124;5.416;2024-01-10T04:39:43;3.25;;;0.52;;
76865;SDS011;66647;52.124;5.416;2024-01-10T04:42:13;3.35;;;0.50;;
76865;SDS011;66647;52.124;5.416;2024-01-10T04:45:23;0.73;;;0.17;;
76865;SDS011;66647;52.124;5.416;2024-01-10T04:48:10;2.22;;;0.25;;
76865;SDS011;66647;52.124;5.416;2024-01-10T04:50:46;2.78;;;0.60;;
76865;SDS011;66647;52.124;5.416;2024-01-10T04:56:30;2.88;;;0.60;;
76865;SDS011;66647;52.124;5.416;2024-01-10T04:58:57;2.28;;;0.93;;
76865;SDS011;66647;52.124;5.416;2024-01-10T05:01:26;1.52;;;0.65;;
76865;SDS011;66647;52.124;5.416;2024-01-10T05:03:53;2.00;;;0.47;;
76865;SDS011;66647;52.124;5.416;2024-01-10T05:14:57;5.75;;;0.35;;
76865;SDS011;66647;52.124;5.416;2024-01-10T05:20:57;4.22;;;0.82;;
76865;SDS011;66647;52.124;5.416;2024-01-10T05:23:27;1.73;;;0.38;;
76865;SDS011;66647;52.124;5.416;2024-01-10T05:33:31;1.40;;;0.47;;
76865;SDS011;66647;52.124;5.416;2024-01-10T05:35:58;2.85;;;1.08;;
76865;SDS011;66647;52.124;5.416;2024-01-10T05:38:25;3.03;;;0.88;;
76865;SDS011;66647;52.124;5.416;2024-01-10T05:40:52;3.60;;;0.35;;
76865;SDS011;66647;52.124;5.416;2024-01-10T05:47:07;2.65;;;0.82;;
76865;SDS011;66647;52.124;5.416;2024-01-10T05:52:27;1.90;;;0.40;;
76865;SDS011;66647;52.124;5.416;2024-01-10T05:54:54;3.92;;;0.50;;
76865;SDS011;66647;52.124;5.416;2024-01-10T05:57:32;1.63;;;0.45;;
76865;SDS011;66647;52.124;5.416;2024-01-10T06:03:09;2.13;;;0.43;;
76865;SDS011;66647;52.124;5.416;2024-01-10T06:05:35;2.30;;;0.82;;
76865;SDS011;66647;52.124;5.416;2024-01-10T06:08:02;4.70;;;1.40;;
76865;SDS011;66647;52.124;5.416;2024-01-10T06:11:04;3.88;;;0.50;;
76865;SDS011;66647;52.124;5.416;2024-01-10T06:13:54;1.70;;;0.68;;
76865;SDS011;66647;52.124;5.416;2024-01-10T06:20:09;2.17;;;0.82;;
76865;SDS011;66647;52.124;5.416;2024-01-10T06:33:00;3.50;;;0.65;;
76865;SDS011;66647;52.124;5.416;2024-01-10T06:37:01;4.00;;;2.30;;
76865;SDS011;66647;52.124;5.416;2024-01-10T06:39:44;3.90;;;1.20;;
76865;SDS011;66647;52.124;5.416;2024-01-10T06:42:15;3.78;;;1.55;;
76865;SDS011;66647;52.124;5.416;2024-01-10T06:44:47;4.50;;;1.65;;
76865;SDS011;66647;52.124;5.416;2024-01-10T06:47:43;2.63;;;1.83;;
76865;SDS011;66647;52.124;5.416;2024-01-10T06:50:14;4.20;;;0.93;;
76865;SDS011;66647;52.124;5.416;2024-01-10T06:52:41;3.42;;;1.63;;
76865;SDS011;66647;52.124;5.416;2024-01-10T07:33:07;1.35;;;1.13;;
76865;SDS011;66647;52.124;5.416;2024-01-10T07:46:51;1.20;;;0.43;;
76865;SDS011;66647;52.124;5.416;2024-01-10T07:49:43;3.17;;;1.80;;
76865;SDS011;66647;52.124;5.416;2024-01-10T07:56:04;2.80;;;1.48;;
76865;SDS011;66647;52.124;5.416;2024-01-10T07:58:57;5.93;;;1.05;;
76865;SDS011;66647;52.124;5.416;2024-01-10T08:04:44;3.45;;;1.73;;
76865;SDS011;66647;52.124;5.416;2024-01-10T08:10:25;3.92;;;0.80;;
76865;SDS011;66647;52.124;5.416;2024-01-10T08:17:18;1.80;;;0.80;;
76865;SDS011;66647;52.124;5.416;2024-01-10T08:19:58;2.58;;;1.02;;
76865;SDS011;66647;52.124;5.416;2024-01-10T08:22:40;2.75;;;0.60;;
76865;SDS011;66647;52.124;5.416;2024-01-10T08:25:07;6.85;;;0.55;;
76865;SDS011;66647;52.124;5.416;2024-01-10T08:27:56;1.90;;;0.40;;
76865;SDS011;66647;52.124;5.416;2024-01-10T08:30:42;6.50;;;0.52;;
76865;SDS011;66647;52.124;5.416;2024-01-10T08:33:12;7.05;;;0.45;;
76865;SDS011;66647;52.124;5.416;2024-01-10T08:35:53;2.47;;;0.73;;
76865;SDS011;66647;52.124;5.416;2024-01-10T08:38:55;3.40;;;0.45;;
76865;SDS011;66647;52.124;5.416;2024-01-10T08:41:25;2.78;;;1.48;;
76865;SDS011;66647;52.124;5.416;2024-01-10T08:50:26;3.58;;;0.63;;
76865;SDS011;66647;52.124;5.416;2024-01-10T08:52:54;4.00;;;1.65;;
76865;SDS011;66647;52.124;5.416;2024-01-10T08:55:59;1.70;;;0.68;;
76865;SDS011;66647;52.124;5.416;2024-01-10T08:58:27;3.67;;;1.15;;
76865;SDS011;66647;52.124;5.416;2024-01-10T09:01:08;1.67;;;0.70;;
76865;SDS011;66647;52.124;5.416;2024-01-10T09:03:36;3.83;;;0.50;;
76865;SDS011;66647;52.124;5.416;2024-01-10T09:06:28;2.30;;;0.50;;
76865;SDS011;66647;52.124;5.416;2024-01-10T09:09:39;5.63;;;2.22;;
76865;SDS011;66647;52.124;5.416;2024-01-10T09:12:09;3.33;;;0.93;;
76865;SDS011;66647;52.124;5.416;2024-01-10T09:17:32;4.97;;;0.82;;
76865;SDS011;66647;52.124;5.416;2024-01-10T09:20:03;3.47;;;0.90;;
76865;SDS011;66647;52.124;5.416;2024-01-10T09:22:31;6.93;;;2.28;;
76865;SDS011;66647;52.124;5.416;2024-01-10T09:30:59;2.75;;;0.70;;
76865;SDS011;66647;52.124;5.416;2024-01-10T09:33:38;3.28;;;0.82;;
76865;SDS011;66647;52.124;5.416;2024-01-10T09:36:05;3.42;;;1.45;;
76865;SDS011;66647;52.124;5.416;2024-01-10T09:38:35;4.78;;;1.50;;
76865;SDS011;66647;52.124;5.416;2024-01-10T09:41:28;4.70;;;1.30;;
76865;SDS011;66647;52.124;5.416;2024-01-10T09:44:22;5.65;;;1.27;;
76865;SDS011;66647;52.124;5.416;2024-01-10T09:47:05;3.95;;;0.93;;
76865;SDS011;66647;52.124;5.416;2024-01-10T09:49:32;5.15;;;2.20;;
76865;SDS011;66647;52.124;5.416;2024-01-10T09:55:40;7.50;;;3.10;;
76865;SDS011;66647;52.124;5.416;2024-01-10T10:01:46;5.05;;;1.15;;
76865;SDS011;66647;52.124;5.416;2024-01-10T10:04:15;5.20;;;1.15;;
76865;SDS011;66647;52.124;5.416;2024-01-10T10:06:46;7.55;;;1.55;;
76865;SDS011;66647;52.124;5.416;2024-01-10T10:12:45;7.55;;;1.38;;
76865;SDS011;66647;52.124;5.416;2024-01-10T10:15:15;7.03;;;2.72;;
76865;SDS011;66647;52.124;5.416;2024-01-10T10:17:45;5.82;;;2.90;;
76865;SDS011;66647;52.124;5.416;2024-01-10T10:20:21;6.20;;;2.65;;
76865;SDS011;66647;52.124;5.416;2024-01-10T10:23:02;7.18;;;1.70;;
76865;SDS011;66647;52.124;5.416;2024-01-10T10:25:34;8.95;;;1.67;;
76865;SDS011;66647;52.124;5.416;2024-01-10T10:30:51;7.40;;;3.05;;
76865;SDS011;66647;52.124;5.416;2024-01-10T10:36:31;7.15;;;1.70;;
76865;SDS011;66647;52.124;5.416;2024-01-10T10:38:59;7.05;;;1.95;;
76865;SDS011;66647;52.124;5.416;2024-01-10T10:41:31;8.18;;;3.00;;
76865;SDS011;66647;52.124;5.416;2024-01-10T10:43:59;6.85;;;1.75;;
76865;SDS011;66647;52.124;5.416;2024-01-10T10:47:00;8.23;;;3.47;;
76865;SDS011;66647;52.124;5.416;2024-01-10T10:49:47;6.68;;;1.88;;
76865;SDS011;66647;52.124;5.416;2024-01-10T10:52:47;8.82;;;2.92;;
76865;SDS011;66647;52.124;5.416;2024-01-10T10:55:16;7.55;;;2.33;;
76865;SDS011;66647;52.124;5.416;2024-01-10T10:57:58;6.72;;;2.75;;
76865;SDS011;66647;52.124;5.416;2024-01-10T11:00:46;6.60;;;2.85;;
76865;SDS011;66647;52.124;5.416;2024-01-10T11:03:17;6.82;;;2.90;;
76865;SDS011;66647;52.124;5.416;2024-01-10T11:06:15;9.50;;;3.22;;
76865;SDS011;66647;52.124;5.416;2024-01-10T11:08:52;7.90;;;3.72;;
76865;SDS011;66647;52.124;5.416;2024-01-10T11:27:15;6.38;;;2.55;;
76865;SDS011;66647;52.124;5.416;2024-01-10T11:29:43;8.30;;;2.70;;
76865;SDS011;66647;52.124;5.416;2024-01-10T11:39:12;8.30;;;3.42;;
76865;SDS011;66647;52.124;5.416;2024-01-10T11:42:08;10.02;;;3.17;;
76865;SDS011;66647;52.124;5.416;2024-01-10T11:48:45;8.32;;;2.35;;
76865;SDS011;66647;52.124;5.416;2024-01-10T11:58:11;6.38;;;1.95;;
76865;SDS011;66647;52.124;5.416;2024-01-10T12:04:09;7.93;;;2.05;;
76865;SDS011;66647;52.124;5.416;2024-01-10T12:07:13;7.07;;;2.08;;
76865;SDS011;66647;52.124;5.416;2024-01-10T12:12:39;7.32;;;2.90;;
76865;SDS011;66647;52.124;5.416;2024-01-10T12:15:06;8.90;;;3.28;;
76865;SDS011;66647;52.124;5.416;2024-01-10T12:24:06;6.55;;;2.05;;
76865;SDS011;66647;52.124;5.416;2024-01-10T12:26:33;7.80;;;2.75;;
76865;SDS011;66647;52.124;5.416;2024-01-10T12:29:18;7.10;;;2.78;;
76865;SDS011;66647;52.124;5.416;2024-01-10T12:39:06;6.72;;;2.00;;
76865;SDS011;66647;52.124;5.416;2024-01-10T12:41:48;6.85;;;2.97;;
76865;SDS011;66647;52.124;5.416;2024-01-10T13:04:52;7.88;;;3.40;;
76865;SDS011;66647;52.124;5.416;2024-01-10T13:07:21;6.93;;;1.77;;
76865;SDS011;66647;52.124;5.416;2024-01-10T13:09:48;8.45;;;1.83;;
76865;SDS011;66647;52.124;5.416;2024-01-10T13:12:15;6.10;;;2.83;;
76865;SDS011;66647;52.124;5.416;2024-01-10T13:35:59;5.38;;;1.40;;
76865;SDS011;66647;52.124;5.416;2024-01-10T13:52:20;6.20;;;1.60;;
76865;SDS011;66647;52.124;5.416;2024-01-10T13:54:49;7.47;;;2.28;;
76865;SDS011;66647;52.124;5.416;2024-01-10T13:57:20;7.28;;;1.02;;
76865;SDS011;66647;52.124;5.416;2024-01-10T13:59:53;8.18;;;2.40;;
76865;SDS011;66647;52.124;5.416;2024-01-10T14:02:22;5.05;;;0.85;;
76865;SDS011;66647;52.124;5.416;2024-01-10T14:04:55;4.70;;;2.05;;
76865;SDS011;66647;52.124;5.416;2024-01-10T14:07:25;5.22;;;0.70;;
76865;SDS011;66647;52.124;5.416;2024-01-10T14:10:18;6.05;;;1.10;;
76865;SDS011;66647;52.124;5.416;2024-01-10T14:12:45;7.97;;;1.10;;
76865;SDS011;66647;52.124;5.416;2024-01-10T14:15:23;9.07;;;2.28;;
76865;SDS011;66647;52.124;5.416;2024-01-10T14:17:50;5.45;;;2.05;;
76865;SDS011;66647;52.124;5.416;2024-01-10T14:20:18;4.45;;;1.33;;
76865;SDS011;66647;52.124;5.416;2024-01-10T14:22:45;8.40;;;2.40;;
76865;SDS011;66647;52.124;5.416;2024-01-10T14:32:02;10.70;;;2.33;;
76865;SDS011;66647;52.124;5.416;2024-01-10T14:34:59;9.63;;;2.45;;
76865;SDS011;66647;52.124;5.416;2024-01-10T14:46:47;4.57;;;1.00;;
76865;SDS011;66647;52.124;5.416;2024-01-10T14:49:32;7.68;;;2.90;;
76865;SDS011;66647;52.124;5.416;2024-01-10T14:53:15;8.57;;;2.00;;
76865;SDS011;66647;52.124;5.416;2024-01-10T15:14:12;5.43;;;3.13;;
76865;SDS011;66647;52.124;5.416;2024-01-10T15:19:58;11.15;;;4.57;;
76865;SDS011;66647;52.124;5.416;2024-01-10T15:22:25;13.13;;;6.18;;
76865;SDS011;66647;52.124;5.416;2024-01-10T15:27:45;10.73;;;4.13;;
76865;SDS011;66647;52.124;5.416;2024-01-10T15:30:11;4.45;;;1.17;;
76865;SDS011;66647;52.124;5.416;2024-01-10T15:32:43;22.42;;;10.93;;
76865;SDS011;66647;52.124;5.416;2024-01-10T15:35:10;8.55;;;3.22;;
76865;SDS011;66647;52.124;5.416;2024-01-10T15:37:54;9.02;;;3.22;;
76865;SDS011;66647;52.124;5.416;2024-01-10T15:43:31;10.18;;;3.65;;
76865;SDS011;66647;52.124;5.416;2024-01-10T16:00:40;5.85;;;1.83;;
76865;SDS011;66647;52.124;5.416;2024-01-10T16:03:19;6.40;;;3.45;;
76865;SDS011;66647;52.124;5.416;2024-01-10T16:13:12;6.05;;;1.17;;
76865;SDS011;66647;52.124;5.416;2024-01-10T16:15:39;11.10;;;4.32;;
76865;SDS011;66647;52.124;5.416;2024-01-10T16:18:17;23.25;;;10.13;;
76865;SDS011;66647;52.124;5.416;2024-01-10T16:20:53;7.60;;;3.67;;
76865;SDS011;66647;52.124;5.416;2024-01-10T16:23:20;6.53;;;1.42;;
76865;SDS011;66647;52.124;5.416;2024-01-10T16:25:49;8.80;;;3.03;;
76865;SDS011;66647;52.124;5.416;2024-01-10T16:28:19;16.52;;;8.15;;
76865;SDS011;66647;52.124;5.416;2024-01-10T16:30:55;19.58;;;11.02;;
76865;SDS011;66647;52.124;5.416;2024-01-10T16:33:22;20.25;;;10.40;;
76865;SDS011;66647;52.124;5.416;2024-01-10T16:36:08;8.73;;;3.60;;
76865;SDS011;66647;52.124;5.416;2024-01-10T16:38:50;29.15;;;17.05;;
76865;SDS011;66647;52.124;5.416;2024-01-10T16:44:09;14.40;;;6.70;;
76865;SDS011;66647;52.124;5.416;2024-01-10T16:49:28;14.27;;;8.32;;
76865;SDS011;66647;52.124;5.416;2024-01-10T16:51:55;20.20;;;5.93;;
76865;SDS011;66647;52.124;5.416;2024-01-10T16:54:21;17.08;;;4.38;;
76865;SDS011;66647;52.124;5.416;2024-01-10T16:56:49;8.65;;;3.80;;
76865;SDS011;66647;52.124;5.416;2024-01-10T16:59:16;8.45;;;4.03;;
76865;SDS011;66647;52.124;5.416;2024-01-10T17:01:43;9.25;;;3.72;;
76865;SDS011;66647;52.124;5.416;2024-01-10T17:04:10;7.32;;;1.85;;
76865;SDS011;66647;52.124;5.416;2024-01-10T17:09:12;9.95;;;3.17;;
76865;SDS011;66647;52.124;5.416;2024-01-10T17:11:42;8.30;;;2.83;;
76865;SDS011;66647;52.124;5.416;2024-01-10T17:14:35;33.00;;;10.38;;
76865;SDS011;66647;52.124;5.416;2024-01-10T17:17:20;16.17;;;4.60;;
76865;SDS011;66647;52.124;5.416;2024-01-10T17:26:47;92.97;;;27.77;;
76865;SDS011;66647;52.124;5.416;2024-01-10T17:29:13;35.83;;;14.27;;
76865;SDS011;66647;52.124;5.416;2024-01-10T17:31:40;29.02;;;14.65;;
76865;SDS011;66647;52.124;5.416;2024-01-10T17:34:12;33.17;;;13.25;;
76865;SDS011;66647;52.124;5.416;2024-01-10T17:36:39;26.30;;;11.40;;
76865;SDS011;66647;52.124;5.416;2024-01-10T17:42:10;17.85;;;5.60;;
76865;SDS011;66647;52.124;5.416;2024-01-10T17:44:36;8.98;;;4.13;;
76865;SDS011;66647;52.124;5.416;2024-01-10T17:47:07;17.50;;;8.18;;
76865;SDS011;66647;52.124;5.416;2024-01-10T17:49:36;44.72;;;15.55;;
76865;SDS011;66647;52.124;5.416;2024-01-10T17:52:05;10.93;;;4.05;;
76865;SDS011;66647;52.124;5.416;2024-01-10T17:54:32;29.90;;;11.35;;
76865;SDS011;66647;52.124;5.416;2024-01-10T17:56:59;39.08;;;18.40;;
76865;SDS011;66647;52.124;5.416;2024-01-10T17:59:25;20.83;;;6.95;;
76865;SDS011;66647;52.124;5.416;2024-01-10T18:01:52;17.70;;;7.85;;
76865;SDS011;66647;52.124;5.416;2024-01-10T18:04:22;13.68;;;6.90;;
76865;SDS011;66647;52.124;5.416;2024-01-10T18:06:48;11.55;;;5.55;;
76865;SDS011;66647;52.124;5.416;2024-01-10T18:09:18;10.73;;;4.88;;
76865;SDS011;66647;52.124;5.416;2024-01-10T18:11:45;10.57;;;3.47;;
76865;SDS011;66647;52.124;5.416;2024-01-10T18:16:27;5.60;;;1.40;;
76865;SDS011;66647;52.124;5.416;2024-01-10T18:18:54;20.38;;;12.32;;
76865;SDS011;66647;52.124;5.416;2024-01-10T18:21:21;9.65;;;3.05;;
76865;SDS011;66647;52.124;5.416;2024-01-10T18:23:48;7.43;;;2.22;;
76865;SDS011;66647;52.124;5.416;2024-01-10T18:26:14;10.25;;;4.00;;
76865;SDS011;66647;52.124;5.416;2024-01-10T18:28:43;9.60;;;4.35;;
76865;SDS011;66647;52.124;5.416;2024-01-10T18:31:10;16.38;;;7.03;;
76865;SDS011;66647;52.124;5.416;2024-01-10T18:33:39;11.27;;;4.65;;
76865;SDS011;66647;52.124;5.416;2024-01-10T18:36:06;8.93;;;2.60;;
76865;SDS011;66647;52.124;5.416;2024-01-10T18:38:33;11.70;;;3.60;;
76865;SDS011;66647;52.124;5.416;2024-01-10T18:41:02;9.98;;;3.35;;
76865;SDS011;66647;52.124;5.416;2024-01-10T18:43:29;8.80;;;4.10;;
76865;SDS011;66647;52.124;5.416;2024-01-10T18:45:56;8.98;;;3.17;;
76865;SDS011;66647;52.124;5.416;2024-01-10T18:48:22;16.40;;;8.77;;
76865;SDS011;66647;52.124;5.416;2024-01-10T18:50:52;12.85;;;6.18;;
76865;SDS011;66647;52.124;5.416;2024-01-10T18:54:45;8.68;;;2.47;;
76865;SDS011;66647;52.124;5.416;2024-01-10T19:00:10;10.75;;;4.60;;
76865;SDS011;66647;52.124;5.416;2024-01-10T19:02:39;8.88;;;4.32;;
76865;SDS011;66647;52.124;5.416;2024-01-10T19:05:06;26.00;;;10.52;;
76865;SDS011;66647;52.124;5.416;2024-01-10T19:07:33;8.73;;;3.50;;
76865;SDS011;66647;52.124;5.416;2024-01-10T19:10:00;12.77;;;4.28;;
76865;SDS011;66647;52.124;5.416;2024-01-10T19:12:29;11.32;;;3.90;;
76865;SDS011;66647;52.124;5.416;2024-01-10T19:14:55;10.02;;;2.50;;
76865;SDS011;66647;52.124;5.416;2024-01-10T19:17:22;10.15;;;3.38;;
76865;SDS011;66647;52.124;5.416;2024-01-10T19:19:53;7.80;;;1.95;;
76865;SDS011;66647;52.124;5.416;2024-01-10T19:22:20;19.48;;;6.45;;
76865;SDS011;66647;52.124;5.416;2024-01-10T19:24:48;12.73;;;5.28;;
76865;SDS011;66647;52.124;5.416;2024-01-10T19:27:15;13.15;;;3.00;;
76865;SDS011;66647;52.124;5.416;2024-01-10T19:29:42;7.75;;;2.30;;
76865;SDS011;66647;52.124;5.416;2024-01-10T19:32:09;13.10;;;5.53;;
76865;SDS011;66647;52.124;5.416;2024-01-10T19:34:36;7.68;;;3.55;;
76865;SDS011;66647;52.124;5.416;2024-01-10T19:37:02;8.40;;;2.60;;
76865;SDS011;66647;52.124;5.416;2024-01-10T19:42:29;9.68;;;4.07;;
76865;SDS011;66647;52.124;5.416;2024-01-10T19:45:04;11.23;;;5.97;;
76865;SDS011;66647;52.124;5.416;2024-01-10T19:47:30;9.13;;;4.63;;
76865;SDS011;66647;52.124;5.416;2024-01-10T19:49:57;15.38;;;6.10;;
76865;SDS011;66647;52.124;5.416;2024-01-10T19:52:24;14.52;;;7.82;;
76865;SDS011;66647;52.124;5.416;2024-01-10T19:54:51;10.70;;;5.97;;
76865;SDS011;66647;52.124;5.416;2024-01-10T19:57:20;16.10;;;6.57;;
76865;SDS011;66647;52.124;5.416;2024-01-10T19:59:47;7.53;;;2.58;;
76865;SDS011;66647;52.124;5.416;2024-01-10T20:02:14;9.40;;;5.10;;
76865;SDS011;66647;52.124;5.416;2024-01-10T20:04:41;12.55;;;3.67;;
76865;SDS011;66647;52.124;5.416;2024-01-10T20:07:08;13.18;;;6.68;;
76865;SDS011;66647;52.124;5.416;2024-01-10T20:09:35;9.45;;;4.22;;
76865;SDS011;66647;52.124;5.416;2024-01-10T20:12:02;9.50;;;3.75;;
76865;SDS011;66647;52.124;5.416;2024-01-10T20:14:29;10.30;;;4.25;;
76865;SDS011;66647;52.124;5.416;2024-01-10T20:17:04;8.27;;;3.13;;
76865;SDS011;66647;52.124;5.416;2024-01-10T20:19:31;10.05;;;3.22;;
76865;SDS011;66647;52.124;5.416;2024-01-10T20:21:58;17.35;;;8.02;;
76865;SDS011;66647;52.124;5.416;2024-01-10T20:24:24;12.70;;;6.15;;
76865;SDS011;66647;52.124;5.416;2024-01-10T20:26:51;17.65;;;7.05;;
76865;SDS011;66647;52.124;5.416;2024-01-10T20:29:20;15.80;;;4.60;;
76865;SDS011;66647;52.124;5.416;2024-01-10T20:31:49;12.85;;;4.95;;
76865;SDS011;66647;52.124;5.416;2024-01-10T20:34:16;14.00;;;4.57;;
76865;SDS011;66647;52.124;5.416;2024-01-10T20:36:43;8.88;;;3.17;;
76865;SDS011;66647;52.124;5.416;2024-01-10T20:39:09;14.18;;;5.43;;
76865;SDS011;66647;52.124;5.416;2024-01-10T20:41:36;10.55;;;5.32;;
76865;SDS011;66647;52.124;5.416;2024-01-10T20:44:03;9.07;;;4.70;;
76865;SDS011;66647;52.124;5.416;2024-01-10T20:46:30;7.53;;;2.13;;
76865;SDS011;66647;52.124;5.416;2024-01-10T20:48:56;8.98;;;4.25;;
76865;SDS011;66647;52.124;5.416;2024-01-10T20:51:24;7.50;;;4.07;;
76865;SDS011;66647;52.124;5.416;2024-01-10T20:53:59;9.90;;;4.57;;
76865;SDS011;66647;52.124;5.416;2024-01-10T20:56:25;8.20;;;3.03;;
76865;SDS011;66647;52.124;5.416;2024-01-10T20:58:53;10.77;;;5.20;;
76865;SDS011;66647;52.124;5.416;2024-01-10T21:01:21;7.45;;;2.85;;
76865;SDS011;66647;52.124;5.416;2024-01-10T21:03:48;9.63;;;4.55;;
76865;SDS011;66647;52.124;5.416;2024-01-10T21:06:15;9.95;;;4.43;;
76865;SDS011;66647;52.124;5.416;2024-01-10T21:08:45;8.13;;;3.70;;
76865;SDS011;66647;52.124;5.416;2024-01-10T21:11:12;9.40;;;4.10;;
76865;SDS011;66647;52.124;5.416;2024-01-10T21:13:38;8.65;;;3.55;;
76865;SDS011;66647;52.124;5.416;2024-01-10T21:16:05;14.63;;;2.45;;
76865;SDS011;66647;52.124;5.416;2024-01-10T21:18:32;6.82;;;1.63;;
76865;SDS011;66647;52.124;5.416;2024-01-10T21:20:59;10.40;;;3.28;;
76865;SDS011;66647;52.124;5.416;2024-01-10T21:23:27;8.57;;;3.08;;
76865;SDS011;66647;52.124;5.416;2024-01-10T21:25:54;9.68;;;1.77;;
76865;SDS011;66647;52.124;5.416;2024-01-10T21:28:21;6.47;;;1.60;;
76865;SDS011;66647;52.124;5.416;2024-01-10T21:30:47;8.60;;;3.40;;
76865;SDS011;66647;52.124;5.416;2024-01-10T21:33:14;7.13;;;3.15;;
76865;SDS011;66647;52.124;5.416;2024-01-10T21:35:41;6.85;;;1.77;;
76865;SDS011;66647;52.124;5.416;2024-01-10T21:38:08;6.68;;;1.83;;
76865;SDS011;66647;52.124;5.416;2024-01-10T21:41:02;6.25;;;3.67;;
76865;SDS011;66647;52.124;5.416;2024-01-10T21:46:21;10.18;;;3.17;;
76865;SDS011;66647;52.124;5.416;2024-01-10T21:48:48;7.15;;;2.75;;
76865;SDS011;66647;52.124;5.416;2024-01-10T21:51:15;8.98;;;3.53;;
76865;SDS011;66647;52.124;5.416;2024-01-10T21:53:47;7.35;;;2.50;;
76865;SDS011;66647;52.124;5.416;2024-01-10T21:56:14;10.13;;;2.00;;
76865;SDS011;66647;52.124;5.416;2024-01-10T21:58:41;8.02;;;3.50;;
76865;SDS011;66647;52.124;5.416;2024-01-10T22:05:56;6.68;;;3.38;;
76865;SDS011;66647;52.124;5.416;2024-01-10T22:08:23;8.10;;;3.70;;
76865;SDS011;66647;52.124;5.416;2024-01-10T22:10:50;5.65;;;1.50;;
76865;SDS011;66647;52.124;5.416;2024-01-10T22:13:16;11.77;;;4.03;;
76865;SDS011;66647;52.124;5.416;2024-01-10T22:15:43;7.55;;;2.33;;
76865;SDS011;66647;52.124;5.416;2024-01-10T22:18:13;9.93;;;4.47;;
76865;SDS011;66647;52.124;5.416;2024-01-10T22:20:40;9.63;;;2.72;;
76865;SDS011;66647;52.124;5.416;2024-01-10T22:23:07;10.57;;;3.97;;
76865;SDS011;66647;52.124;5.416;2024-01-10T22:25:34;4.97;;;1.35;;
76865;SDS011;66647;52.124;5.416;2024-01-10T22:28:03;11.15;;;3.85;;
76865;SDS011;66647;52.124;5.416;2024-01-10T22:30:29;7.63;;;3.72;;
76865;SDS011;66647;52.124;5.416;2024-01-10T22:32:59;10.32;;;2.65;;
76865;SDS011;66647;52.124;5.416;2024-01-10T22:35:26;8.98;;;2.33;;
76865;SDS011;66647;52.124;5.416;2024-01-10T22:37:53;5.30;;;2.50;;
76865;SDS011;66647;52.124;5.416;2024-01-10T22:40:21;9.82;;;2.92;;
76865;SDS011;66647;52.124;5.416;2024-01-10T22:42:49;9.75;;;4.47;;